Terminal Aerodrome Forecast
Issued by NWS Wichita, KS

Home | Current Version | Previous Version | Text Only | Print | Product List | Glossary On
Versions: 1 2 3 4 5 6 7 8 9 10 11 12
574
FTUS43 KICT 192320
TAFICT
TAF
KICT 192320Z 2000/2024 16013G22KT P6SM FEW070 FEW250
     FM200100 17009KT P6SM SKC
     FM201500 20013KT P6SM FEW250
     FM201900 19014G21KT P6SM SKC=

USA.gov is the U.S. government's official web portal to all federal, state and local government web resources and services.